createdAt,value
2018-11-25T00:00:04.479Z,81.48
2018-11-25T00:02:32.071Z,80.87
2018-11-25T00:04:59.602Z,80.52
2018-11-25T00:07:34.336Z,80.95
2018-11-25T00:09:54.825Z,80.18
2018-11-25T00:12:22.464Z,80.23
2018-11-25T00:14:50.056Z,80.28
2018-11-25T00:17:17.684Z,80.22
2018-11-25T00:19:45.231Z,80.61
2018-11-25T00:22:12.825Z,80.24
2018-11-25T00:24:40.372Z,80.55
2018-11-25T00:27:07.951Z,81.14
2018-11-25T00:29:35.823Z,81.03
2018-11-25T00:32:03.445Z,80.94
2018-11-25T00:34:31.026Z,81.57
2018-11-25T00:36:58.584Z,81.02
2018-11-25T00:39:26.181Z,80.63
2018-11-25T00:41:53.755Z,80.83
2018-11-25T00:44:21.333Z,80.88
2018-11-25T00:46:48.941Z,80.93
2018-11-25T00:49:16.456Z,81.04
2018-11-25T00:51:44.019Z,81.74
2018-11-25T00:54:11.568Z,81.64
2018-11-25T00:56:39.143Z,81.23
2018-11-25T00:59:06.740Z,81.26
2018-11-25T01:01:34.271Z,80.84
2018-11-25T01:04:02.640Z,80.39
2018-11-25T01:06:30.283Z,80.90
2018-11-25T01:08:58.280Z,80.71
2018-11-25T01:11:25.824Z,81.84
2018-11-25T01:13:53.382Z,82.36
2018-11-25T01:16:20.980Z,82.59
2018-11-25T01:18:48.540Z,82.60
2018-11-25T01:21:16.103Z,82.82
2018-11-25T01:23:43.671Z,83.27
2018-11-25T01:26:11.251Z,83.19
2018-11-25T01:28:38.812Z,83.09
2018-11-25T01:31:06.351Z,83.56
2018-11-25T01:33:33.972Z,83.58
2018-11-25T01:36:01.564Z,83.18
2018-11-25T01:38:30.203Z,82.81
2018-11-25T01:40:57.766Z,82.56
2018-11-25T01:43:25.357Z,82.94
2018-11-25T01:45:52.932Z,82.78
2018-11-25T01:48:20.460Z,82.78
2018-11-25T01:50:48.039Z,83.20
2018-11-25T01:53:15.649Z,82.98
2018-11-25T01:55:43.221Z,83.27
2018-11-25T01:58:10.771Z,83.79
2018-11-25T02:00:38.319Z,84.37
2018-11-25T02:03:05.892Z,84.85
2018-11-25T02:05:33.723Z,84.79
2018-11-25T02:08:01.388Z,84.43
2018-11-25T02:10:28.961Z,84.67
2018-11-25T02:12:57.132Z,84.83
2018-11-25T02:15:24.659Z,85.14
2018-11-25T02:17:52.247Z,85.48
2018-11-25T02:20:21.238Z,86.58
2018-11-25T02:22:49.097Z,86.37
2018-11-25T02:25:16.650Z,86.65
2018-11-25T02:27:44.199Z,86.24
2018-11-25T02:30:13.452Z,86.26
2018-11-25T02:32:41.015Z,86.33
2018-11-25T02:35:09.110Z,86.30
2018-11-25T02:37:36.679Z,86.08
2018-11-25T02:40:05.221Z,86.61
2018-11-25T02:42:32.758Z,86.48
2018-11-25T02:45:00.278Z,86.65
2018-11-25T02:47:27.811Z,86.63
2018-11-25T02:49:55.343Z,86.66
2018-11-25T02:52:22.889Z,86.59
2018-11-25T02:54:50.437Z,86.34
2018-11-25T02:57:22.930Z,86.74
2018-11-25T02:59:51.096Z,86.60
2018-11-25T03:02:19.067Z,86.11
2018-11-25T03:04:46.598Z,86.54
2018-11-25T03:07:14.152Z,86.38
2018-11-25T03:09:41.730Z,86.37
2018-11-25T03:12:09.280Z,86.63
2018-11-25T03:14:36.844Z,86.19
2018-11-25T03:17:04.471Z,86.37
2018-11-25T03:19:32.023Z,86.44
2018-11-25T03:21:59.568Z,86.08
2018-11-25T03:24:27.160Z,86.39
2018-11-25T03:26:54.685Z,86.31
2018-11-25T03:29:22.251Z,86.61
2018-11-25T03:31:49.776Z,86.04
2018-11-25T03:34:17.352Z,86.50
2018-11-25T03:36:44.905Z,86.07
2018-11-25T03:39:12.450Z,85.49
2018-11-25T03:41:40.023Z,85.65
2018-11-25T03:44:07.620Z,85.97
2018-11-25T03:46:35.198Z,85.46
2018-11-25T03:49:02.741Z,85.38
2018-11-25T03:51:30.282Z,84.95
2018-11-25T03:53:57.818Z,84.78
2018-11-25T03:56:25.332Z,85.19
2018-11-25T03:58:52.960Z,85.75
2018-11-25T04:01:20.577Z,85.66
2018-11-25T04:03:48.133Z,85.37
2018-11-25T04:06:15.691Z,86.03
2018-11-25T04:08:43.204Z,85.68
2018-11-25T04:11:10.719Z,85.30
2018-11-25T04:13:38.263Z,85.06
2018-11-25T04:16:05.787Z,85.62
2018-11-25T04:18:33.350Z,85.30
2018-11-25T04:21:00.928Z,86.08
2018-11-25T04:23:28.443Z,85.51
2018-11-25T04:25:55.996Z,85.95
2018-11-25T04:28:23.535Z,85.86
2018-11-25T04:30:51.113Z,85.40
2018-11-25T04:33:18.672Z,85.35
2018-11-25T04:35:46.229Z,85.17
2018-11-25T04:38:14.179Z,85.52
2018-11-25T04:40:41.687Z,85.48
2018-11-25T04:43:09.203Z,85.40
2018-11-25T04:45:36.729Z,85.95
2018-11-25T04:48:04.272Z,85.31
2018-11-25T04:50:31.815Z,85.12
2018-11-25T04:52:59.388Z,85.35
2018-11-25T04:55:27.199Z,84.89
2018-11-25T04:57:54.730Z,85.49
2018-11-25T05:00:22.253Z,84.61
2018-11-25T05:02:50.295Z,85.02
2018-11-25T05:05:17.852Z,84.93
2018-11-25T05:07:45.408Z,85.17
2018-11-25T05:10:13.380Z,85.05
2018-11-25T05:12:41.351Z,84.54
2018-11-25T05:15:10.691Z,84.82
2018-11-25T05:17:38.210Z,84.32
2018-11-25T05:20:06.812Z,84.97
2018-11-25T05:22:34.354Z,83.99
2018-11-25T05:25:02.503Z,84.02
2018-11-25T05:27:30.056Z,83.89
2018-11-25T05:29:58.475Z,83.52
2018-11-25T05:32:26.015Z,82.82
2018-11-25T05:34:53.563Z,82.84
2018-11-25T05:37:21.119Z,82.50
2018-11-25T05:39:48.664Z,82.27
2018-11-25T05:42:16.192Z,82.50
2018-11-25T05:44:43.792Z,82.90
2018-11-25T05:47:11.367Z,82.35
2018-11-25T05:49:39.043Z,82.36
2018-11-25T05:52:06.580Z,82.57
2018-11-25T05:54:34.124Z,82.07
2018-11-25T05:57:01.992Z,82.43
2018-11-25T05:59:29.530Z,82.58
2018-11-25T06:01:57.102Z,82.09
2018-11-25T06:04:24.627Z,82.24
2018-11-25T06:06:52.171Z,82.31
2018-11-25T06:09:19.715Z,81.66
2018-11-25T06:11:47.237Z,81.89
2018-11-25T06:14:15.322Z,81.44
2018-11-25T06:16:42.911Z,81.99
2018-11-25T06:19:10.432Z,81.87
2018-11-25T06:21:37.998Z,82.19
2018-11-25T06:24:05.555Z,82.03
2018-11-25T06:26:33.363Z,82.19
2018-11-25T06:29:01.308Z,82.24
2018-11-25T06:31:28.859Z,82.14
2018-11-25T06:33:56.759Z,82.40
2018-11-25T06:36:24.316Z,83.37
2018-11-25T06:38:51.899Z,83.01
2018-11-25T06:41:19.455Z,83.29
2018-11-25T06:43:47.039Z,83.60
2018-11-25T06:46:14.615Z,83.49
2018-11-25T06:48:42.195Z,82.86
2018-11-25T06:51:09.775Z,82.87
2018-11-25T06:53:37.320Z,82.48
2018-11-25T06:56:04.888Z,82.40
2018-11-25T06:58:32.468Z,81.91
2018-11-25T07:01:00.053Z,81.80
2018-11-25T07:03:27.617Z,81.54
2018-11-25T07:05:55.156Z,82.04
2018-11-25T07:08:22.730Z,81.30
2018-11-25T07:10:50.266Z,81.47
2018-11-25T07:13:17.883Z,81.67
2018-11-25T07:15:45.453Z,82.90
2018-11-25T07:18:12.978Z,82.93
2018-11-25T07:20:40.810Z,83.48
2018-11-25T07:23:08.361Z,83.78
2018-11-25T07:25:35.931Z,83.62
2018-11-25T07:28:18.017Z,83.50
2018-11-25T07:30:31.187Z,82.88
2018-11-25T07:32:58.771Z,83.07
2018-11-25T07:35:26.840Z,83.20
2018-11-25T07:37:54.447Z,83.68
2018-11-25T07:40:22.334Z,83.23
2018-11-25T07:42:49.896Z,82.61
2018-11-25T07:45:18.914Z,82.90
2018-11-25T07:47:46.442Z,81.65
2018-11-25T07:50:14.085Z,79.23
2018-11-25T07:52:42.451Z,76.54
2018-11-25T07:55:11.663Z,75.37
2018-11-25T07:57:39.322Z,72.81
2018-11-25T08:00:09.272Z,68.44
2018-11-25T08:02:41.385Z,68.17
2018-11-25T08:05:05.356Z,65.64
2018-11-25T08:07:32.978Z,65.89
2018-11-25T08:10:00.955Z,65.39
2018-11-25T08:12:28.825Z,65.33
2018-11-25T08:14:56.394Z,64.14
2018-11-25T08:17:23.973Z,64.02
2018-11-25T08:19:51.562Z,64.22
2018-11-25T08:22:19.152Z,64.02
2018-11-25T08:24:46.726Z,59.11
2018-11-25T08:27:14.293Z,57.21
2018-11-25T08:29:41.839Z,53.08
2018-11-25T08:32:09.416Z,47.11
2018-11-25T08:34:37.006Z,42.73
2018-11-25T08:37:05.128Z,41.92
2018-11-25T08:39:32.922Z,36.54
2018-11-25T08:42:00.969Z,34.97
2018-11-25T08:44:28.568Z,30.08
2018-11-25T08:46:56.141Z,31.58
2018-11-25T08:49:23.761Z,26.74
2018-11-25T08:51:51.311Z,26.78
2018-11-25T08:54:19.625Z,22.51
2018-11-25T08:56:47.718Z,26.14
2018-11-25T08:59:15.366Z,26.83
2018-11-25T09:01:42.967Z,24.02
2018-11-25T09:04:10.539Z,21.74
2018-11-25T09:06:38.203Z,22.09
2018-11-25T09:09:07.036Z,20.96
2018-11-25T09:11:34.644Z,22.03
2018-11-25T09:14:02.244Z,22.70
2018-11-25T09:16:29.849Z,20.29
2018-11-25T09:18:57.431Z,20.95
2018-11-25T09:21:25.038Z,20.38
2018-11-25T09:23:52.642Z,19.44
2018-11-25T09:26:20.264Z,19.79
2018-11-25T09:28:47.876Z,18.47
2018-11-25T09:31:16.467Z,19.74
2018-11-25T09:33:44.147Z,16.95
2018-11-25T09:36:11.773Z,18.54
2018-11-25T09:38:39.372Z,16.71
2018-11-25T09:41:07.040Z,17.88
2018-11-25T09:43:35.297Z,17.03
2018-11-25T09:46:02.931Z,17.48
2018-11-25T09:48:30.520Z,16.95
2018-11-25T09:50:58.463Z,16.89
2018-11-25T09:53:26.047Z,18.98
2018-11-25T09:55:53.681Z,19.35
2018-11-25T09:58:25.451Z,20.42
2018-11-25T10:00:48.874Z,20.00
2018-11-25T10:03:16.502Z,20.05
2018-11-25T10:05:44.085Z,20.32
2018-11-25T10:08:11.717Z,21.53
2018-11-25T10:10:39.648Z,21.68
2018-11-25T10:13:07.319Z,22.02
2018-11-25T10:15:34.898Z,21.02
2018-11-25T10:18:02.626Z,21.33
2018-11-25T10:20:30.680Z,21.20
2018-11-25T10:22:58.324Z,20.19
2018-11-25T10:25:25.917Z,19.99
2018-11-25T10:27:53.568Z,21.57
2018-11-25T10:30:21.958Z,21.70
2018-11-25T10:32:50.276Z,20.69
2018-11-25T10:35:17.865Z,20.31
2018-11-25T10:37:45.792Z,21.66
2018-11-25T10:40:15.141Z,22.25
2018-11-25T10:42:42.720Z,21.56
2018-11-25T10:45:14.834Z,21.22
2018-11-25T10:47:42.441Z,21.40
2018-11-25T10:50:13.602Z,21.78
2018-11-25T10:52:41.250Z,22.97
2018-11-25T10:55:09.391Z,21.82
2018-11-25T10:57:36.988Z,22.73
2018-11-25T11:00:09.813Z,22.84
2018-11-25T11:02:43.387Z,21.86
2018-11-25T11:05:15.525Z,23.57
2018-11-25T11:07:44.908Z,24.60
2018-11-25T11:10:12.533Z,22.70
2018-11-25T11:12:40.104Z,21.95
2018-11-25T11:15:09.276Z,23.88
2018-11-25T11:17:36.842Z,24.09
2018-11-25T11:20:05.852Z,25.67
2018-11-25T11:22:33.444Z,27.36
2018-11-25T11:25:01.024Z,31.85
2018-11-25T11:27:28.616Z,35.36
2018-11-25T11:29:56.199Z,38.88
2018-11-25T11:32:23.771Z,41.66
2018-11-25T11:34:51.690Z,43.41
2018-11-25T11:37:19.311Z,45.99
2018-11-25T11:39:46.866Z,46.55
2018-11-25T11:42:14.453Z,48.53
2018-11-25T11:44:42.129Z,50.75
2018-11-25T11:47:09.720Z,51.13
2018-11-25T11:49:37.284Z,52.22
2018-11-25T11:52:05.152Z,53.87
2018-11-25T11:54:32.755Z,53.66
2018-11-25T11:57:00.348Z,54.56
2018-11-25T11:59:27.952Z,54.15
2018-11-25T12:01:55.517Z,55.32
2018-11-25T12:04:23.139Z,55.97
2018-11-25T12:06:50.739Z,56.43
2018-11-25T12:09:18.409Z,56.33
2018-11-25T12:11:45.980Z,56.76
2018-11-25T12:14:13.552Z,57.04
2018-11-25T12:16:41.153Z,56.55
2018-11-25T12:19:08.753Z,57.90
2018-11-25T12:21:36.315Z,57.19
2018-11-25T12:24:03.913Z,58.59
2018-11-25T12:26:31.509Z,59.60
2018-11-25T12:28:59.084Z,58.56
2018-11-25T12:31:26.717Z,59.81
2018-11-25T12:33:54.260Z,60.50
2018-11-25T12:36:21.874Z,59.61
2018-11-25T12:38:49.484Z,59.25
2018-11-25T12:41:17.076Z,60.46
2018-11-25T12:43:44.631Z,59.58
2018-11-25T12:46:12.309Z,60.34
2018-11-25T12:48:39.963Z,61.22
2018-11-25T12:51:07.560Z,61.17
2018-11-25T12:53:35.196Z,61.42
2018-11-25T12:56:02.831Z,62.07
2018-11-25T12:58:30.401Z,62.07
2018-11-25T13:00:58.347Z,62.94
2018-11-25T13:03:26.099Z,62.87
2018-11-25T13:05:53.679Z,63.33
2018-11-25T13:08:21.265Z,62.93
2018-11-25T13:10:48.830Z,63.14
2018-11-25T13:13:16.417Z,63.44
2018-11-25T13:15:43.975Z,63.24
2018-11-25T13:18:11.577Z,63.92
2018-11-25T13:20:39.149Z,64.01
2018-11-25T13:23:06.760Z,64.44
2018-11-25T13:25:34.383Z,65.19
2018-11-25T13:28:01.967Z,65.39
2018-11-25T13:30:30.626Z,65.59
2018-11-25T13:32:58.867Z,65.78
2018-11-25T13:35:27.809Z,66.41
2018-11-25T13:37:54.736Z,66.94
2018-11-25T13:40:22.342Z,67.12
2018-11-25T13:42:49.887Z,67.37
2018-11-25T13:45:17.459Z,67.53
2018-11-25T13:47:45.049Z,67.58
2018-11-25T13:50:12.631Z,67.60
2018-11-25T13:52:40.290Z,67.73
2018-11-25T13:55:08.778Z,67.80
2018-11-25T13:57:36.372Z,67.73
2018-11-25T14:00:06.159Z,68.25
2018-11-25T14:02:34.016Z,68.51
2018-11-25T14:05:01.607Z,68.82
2018-11-25T14:07:29.208Z,69.09
2018-11-25T14:09:56.783Z,69.51
2018-11-25T14:12:24.894Z,69.00
2018-11-25T14:14:52.538Z,69.23
2018-11-25T14:17:20.103Z,69.71
2018-11-25T14:19:47.772Z,69.85
2018-11-25T14:22:15.316Z,69.77
2018-11-25T14:24:42.939Z,69.54
2018-11-25T14:27:10.507Z,69.55
2018-11-25T14:29:38.425Z,69.58
2018-11-25T14:32:06.142Z,69.37
2018-11-25T14:34:33.728Z,69.04
2018-11-25T14:37:02.175Z,68.48
2018-11-25T14:39:29.740Z,68.92
2018-11-25T14:41:57.319Z,69.17
2018-11-25T14:44:25.543Z,70.07
2018-11-25T14:46:53.115Z,70.56
2018-11-25T14:49:20.713Z,70.40
2018-11-25T14:51:48.259Z,70.55
2018-11-25T14:54:15.862Z,70.86
2018-11-25T14:56:43.535Z,71.32
2018-11-25T14:59:11.164Z,71.57
2018-11-25T15:01:38.725Z,71.49
2018-11-25T15:04:06.328Z,71.42
2018-11-25T15:06:33.891Z,71.77
2018-11-25T15:09:01.449Z,71.86
2018-11-25T15:11:29.065Z,71.50
2018-11-25T15:13:56.915Z,71.51
2018-11-25T15:16:24.521Z,71.62
2018-11-25T15:18:52.180Z,71.96
2018-11-25T15:21:19.792Z,71.93
2018-11-25T15:23:47.574Z,72.12
2018-11-25T15:26:16.206Z,72.67
2018-11-25T15:28:43.904Z,73.17
2018-11-25T15:31:11.807Z,73.46
2018-11-25T15:33:39.443Z,73.04
2018-11-25T15:36:07.040Z,73.35
2018-11-25T15:38:34.604Z,73.29
2018-11-25T15:41:02.520Z,73.06
2018-11-25T15:43:30.157Z,73.54
2018-11-25T15:45:57.721Z,74.04
2018-11-25T15:48:26.909Z,74.01
2018-11-25T15:50:54.070Z,73.30
2018-11-25T15:53:21.743Z,73.71
2018-11-25T15:55:50.157Z,73.92
2018-11-25T15:58:18.851Z,74.09
2018-11-25T16:00:46.483Z,74.56
2018-11-25T16:03:14.427Z,74.87
2018-11-25T16:05:43.881Z,74.96
2018-11-25T16:08:11.527Z,75.20
2018-11-25T16:10:39.134Z,75.74
2018-11-25T16:13:07.397Z,75.55
2018-11-25T16:15:35.264Z,75.39
2018-11-25T16:18:02.855Z,75.64
2018-11-25T16:20:30.452Z,76.01
2018-11-25T16:22:58.803Z,75.54
2018-11-25T16:25:27.152Z,75.41
2018-11-25T16:27:56.746Z,75.65
2018-11-25T16:30:24.403Z,75.59
2018-11-25T16:32:51.969Z,75.34
2018-11-25T16:35:19.604Z,75.44
2018-11-25T16:37:47.586Z,75.32
2018-11-25T16:40:16.286Z,75.89
2018-11-25T16:42:43.961Z,75.59
2018-11-25T16:45:12.212Z,75.70
2018-11-25T16:47:39.902Z,76.55
2018-11-25T16:50:08.680Z,76.75
2018-11-25T16:52:36.493Z,76.39
2018-11-25T16:55:04.841Z,76.33
2018-11-25T16:57:32.698Z,76.75
2018-11-25T17:00:00.371Z,76.76
2018-11-25T17:02:27.974Z,76.37
2018-11-25T17:04:55.588Z,76.75
2018-11-25T17:07:23.206Z,77.33
2018-11-25T17:09:51.804Z,77.19
2018-11-25T17:12:19.451Z,77.37
2018-11-25T17:14:47.067Z,77.25
2018-11-25T17:17:14.721Z,77.43
2018-11-25T17:19:42.336Z,76.27
2018-11-25T17:22:09.972Z,75.39
2018-11-25T17:24:37.590Z,75.17
2018-11-25T17:27:05.173Z,76.27
2018-11-25T17:29:32.786Z,77.08
2018-11-25T17:32:00.356Z,77.12
2018-11-25T17:34:27.965Z,76.79
2018-11-25T17:36:55.537Z,77.66
2018-11-25T17:39:23.118Z,78.19
2018-11-25T17:41:50.752Z,77.99
2018-11-25T17:44:18.365Z,77.71
2018-11-25T17:46:45.989Z,77.30
2018-11-25T17:49:13.964Z,77.40
2018-11-25T17:51:41.579Z,77.27
2018-11-25T17:54:09.194Z,77.62
2018-11-25T17:56:37.228Z,77.93
2018-11-25T17:59:06.013Z,78.37
2018-11-25T18:01:33.766Z,78.75
2018-11-25T18:04:02.045Z,79.37
2018-11-25T18:06:29.629Z,80.16
2018-11-25T18:08:57.636Z,80.00
2018-11-25T18:11:25.313Z,81.27
2018-11-25T18:13:52.890Z,81.79
2018-11-25T18:16:20.549Z,81.83
2018-11-25T18:18:50.061Z,81.61
2018-11-25T18:21:24.965Z,81.92
2018-11-25T18:23:52.651Z,82.00
2018-11-25T18:26:20.271Z,82.76
2018-11-25T18:28:47.941Z,82.79
2018-11-25T18:31:15.503Z,82.42
2018-11-25T18:33:43.127Z,82.69
2018-11-25T18:36:11.758Z,82.77
2018-11-25T18:38:39.457Z,82.41
2018-11-25T18:41:07.133Z,82.79
2018-11-25T18:43:34.809Z,83.14
2018-11-25T18:46:02.649Z,83.29
2018-11-25T18:48:30.819Z,82.85
2018-11-25T18:50:58.525Z,82.81
2018-11-25T18:53:26.176Z,82.54
2018-11-25T18:55:53.840Z,82.27
2018-11-25T18:58:21.893Z,82.73
2018-11-25T19:01:55.407Z,82.28
2018-11-25T19:04:23.295Z,82.04
2018-11-25T19:06:50.897Z,81.62
2018-11-25T19:09:18.531Z,82.10
2018-11-25T19:11:46.204Z,82.33
2018-11-25T19:14:13.870Z,81.90
2018-11-25T19:16:41.425Z,81.53
2018-11-25T19:19:09.354Z,81.49
2018-11-25T19:21:36.958Z,80.89
2018-11-25T19:24:05.513Z,81.67
2018-11-25T19:26:33.177Z,81.14
2018-11-25T19:29:00.789Z,81.31
2018-11-25T19:31:28.401Z,81.28
2018-11-25T19:33:56.069Z,80.29
2018-11-25T19:36:23.674Z,80.42
2018-11-25T19:38:51.299Z,81.36
2018-11-25T19:41:18.929Z,81.15
2018-11-25T19:43:46.512Z,81.24
2018-11-25T19:46:14.229Z,81.29
2018-11-25T19:48:43.407Z,81.01
2018-11-25T19:51:17.420Z,80.78
2018-11-25T19:53:38.744Z,80.76
2018-11-25T19:56:06.635Z,80.94
2018-11-25T19:58:34.253Z,81.09
2018-11-25T20:01:02.038Z,81.48
2018-11-25T20:03:30.810Z,81.25
2018-11-25T20:05:58.497Z,81.65
2018-11-25T20:08:26.096Z,82.02
2018-11-25T20:10:53.684Z,81.83
2018-11-25T20:13:21.282Z,81.24
2018-11-25T20:15:48.897Z,80.77
2018-11-25T20:18:16.510Z,80.42
2018-11-25T20:20:48.647Z,80.31
2018-11-25T20:23:16.309Z,80.34
2018-11-25T20:25:43.899Z,80.72
2018-11-25T20:28:11.521Z,80.20
2018-11-25T20:30:39.101Z,80.23
2018-11-25T20:33:12.417Z,79.78
2018-11-25T20:35:40.361Z,80.29
2018-11-25T20:38:13.622Z,79.82
2018-11-25T20:40:41.252Z,79.45
2018-11-25T20:43:08.824Z,80.22
2018-11-25T20:45:41.864Z,80.69
2018-11-25T20:48:09.512Z,80.01
2018-11-25T20:50:37.141Z,79.75
2018-11-25T20:53:10.487Z,79.74
2018-11-25T20:55:38.127Z,79.72
2018-11-25T20:58:06.934Z,80.08
2018-11-25T21:00:34.566Z,80.39
2018-11-25T21:03:02.168Z,79.76
2018-11-25T21:05:30.134Z,78.82
2018-11-25T21:07:57.707Z,78.83
2018-11-25T21:10:26.191Z,78.85
2018-11-25T21:12:53.598Z,79.69
2018-11-25T21:15:21.205Z,79.92
2018-11-25T21:17:48.850Z,80.23
2018-11-25T21:20:17.225Z,80.36
2018-11-25T21:22:44.889Z,79.28
2018-11-25T21:25:14.008Z,79.51
2018-11-25T21:27:41.602Z,79.76
2018-11-25T21:30:10.014Z,80.02
2018-11-25T21:32:43.898Z,80.27
2018-11-25T21:35:12.179Z,80.58
2018-11-25T21:37:39.785Z,80.10
2018-11-25T21:40:11.112Z,80.43
2018-11-25T21:42:38.978Z,81.01
2018-11-25T21:45:07.516Z,80.98
2018-11-25T21:47:35.077Z,80.72
2018-11-25T21:50:02.727Z,81.01
2018-11-25T21:52:30.312Z,81.37
2018-11-25T21:54:57.889Z,81.42
2018-11-25T21:57:25.518Z,81.31
2018-11-25T21:59:53.164Z,81.29
2018-11-25T22:02:21.667Z,81.32
2018-11-25T22:04:49.081Z,81.77
2018-11-25T22:07:16.674Z,81.56
2018-11-25T22:09:44.252Z,81.46
2018-11-25T22:12:11.817Z,81.55
2018-11-25T22:14:39.474Z,81.11
2018-11-25T22:17:07.085Z,81.64
2018-11-25T22:19:34.646Z,81.19
2018-11-25T22:22:02.253Z,81.31
2018-11-25T22:24:29.835Z,81.96
2018-11-25T22:26:57.419Z,82.26
2018-11-25T22:29:25.045Z,82.10
2018-11-25T22:31:52.602Z,82.26
2018-11-25T22:34:20.181Z,82.55
2018-11-25T22:36:47.814Z,82.15
2018-11-25T22:39:15.432Z,81.92
2018-11-25T22:41:43.034Z,82.42
2018-11-25T22:44:10.631Z,82.13
2018-11-25T22:46:38.195Z,82.45
2018-11-25T22:49:05.810Z,82.37
2018-11-25T22:51:33.424Z,82.38
2018-11-25T22:54:00.979Z,82.53
2018-11-25T22:56:28.573Z,83.07
2018-11-25T22:58:56.163Z,82.97
2018-11-25T23:01:23.725Z,82.32
2018-11-25T23:03:56.872Z,82.84
2018-11-25T23:07:00.216Z,83.03
2018-11-25T23:09:27.876Z,83.55
2018-11-25T23:11:55.553Z,84.11
2018-11-25T23:14:23.161Z,84.73
2018-11-25T23:16:50.739Z,84.71
2018-11-25T23:19:18.348Z,85.15
2018-11-25T23:21:45.903Z,85.12
2018-11-25T23:24:13.485Z,84.80
2018-11-25T23:26:41.077Z,84.60
2018-11-25T23:29:08.670Z,84.99
2018-11-25T23:31:36.224Z,85.03
2018-11-25T23:34:04.736Z,85.23
2018-11-25T23:36:32.999Z,85.46
2018-11-25T23:39:00.696Z,85.58
2018-11-25T23:41:28.663Z,85.84
2018-11-25T23:43:56.215Z,86.02
2018-11-25T23:46:23.743Z,85.73
2018-11-25T23:48:51.311Z,85.76
2018-11-25T23:51:18.900Z,85.75
2018-11-25T23:53:46.460Z,86.00
2018-11-25T23:56:14.057Z,85.91
2018-11-25T23:58:41.635Z,86.28
